Latest Coastal Weather Observations for Norfolk Island

IDN60701

Issued at 1:21 am EST Monday 30 May 2016 (issued every 10 minutes, with the page automatically refreshed every 10 minutes)

About coastal observations | Map of coastal stations | Coastal observations for NSW | Marine services | Other Formats
Station Details ID: 200288 Name: NORFOLK ISLAND AERO Lat: -29.04 Lon: 167.94 Height: 111.73 m
Data from the previous 72 hours. | See also: Recent months at Norfolk Island
Date/Time
EST
Temp

°C
Wind Pressure Rain
since 9am
mm
Weather Cloud Vis
km
Sea
Height
m
Swell
Dir
 
Speed
knots
Gust
knots
hPa Trend Height
m
Period
s
Dir
30/01:00am 18.0 WSW 10 14 1015.8 - 0.4 - Partly cloudy 10 - - - -
30/12:47am 17.3 WSW 8 10 1015.9 - 0.4 - Partly cloudy 10 - - - -
30/12:32am 17.6 WSW 15 24 1015.8 - 0.4 - Partly cloudy 6 - - - -
30/12:30am 18.5 WSW 15 24 1015.8 - 0.2 - Partly cloudy 10 - - - -
30/12:00am 19.4 WSW 15 22 1015.6 - 0.0 - Partly cloudy 10 - - - -
 
Date/Time
EST
Temp

°C
Wind Pressure Rain
since 9am
mm
Weather Cloud Vis
km
Sea
Height
m
Swell
Dir
 
Speed
knots
Gust
knots
hPa Trend Height
m
Period
s
Dir
29/11:30pm 19.3 WSW 16 21 1015.6 - 0.0 - Partly cloudy 10 - - - -
29/11:00pm 19.2 WSW 15 20 1015.4 - 0.0 - - 10 - - - -
29/10:30pm 19.5 WSW 15 21 1015.6 - 0.0 - Partly cloudy 10 - - - -
29/10:00pm 19.2 W 15 19 1015.6 - 0.0 - Partly cloudy 10 - - - -
29/09:30pm 19.6 W 14 20 1015.5 - 0.0 - Partly cloudy 10 - - - -
29/09:00pm 19.6 W 13 20 1015.2 - 0.0 - Partly cloudy 10 - - - -
29/08:30pm 19.6 W 13 19 1015.3 - 0.0 - - 10 - - - -
29/08:00pm 19.9 W 16 23 1014.7 - 0.0 - Cloudy 10 - - - -
29/07:30pm 19.7 WSW 14 20 1015.0 - 0.0 - Partly cloudy 10 - - - -
29/07:00pm 19.7 WSW 15 20 1014.9 - 0.0 - Partly cloudy 10 - - - -
29/06:30pm 19.8 WSW 15 24 1014.6 - 0.0 - Partly cloudy 10 - - - -
29/06:00pm 19.7 WSW 15 22 1014.5 - 0.0 - Partly cloudy 10 - - - -
29/05:30pm 19.8 WSW 15 22 1014.3 - 0.0 - Partly cloudy 10 - - - -
29/05:00pm 19.8 WSW 17 26 1013.5 - 0.0 - Cloudy 10 - - - -
29/04:36pm 19.7 WSW 16 26 1013.3 - 0.0 - Partly cloudy 10 - - - -
29/04:30pm 19.8 WSW 17 26 1013.1 - 0.0 - Partly cloudy 10 - - - -
29/04:09pm 19.6 WSW 17 27 1012.9 - 0.0 - Partly cloudy 10 - - - -
29/04:00pm 19.7 WSW 18 24 1012.9 - 0.0 - Partly cloudy 10 - - - -
29/03:30pm 19.7 WSW 16 23 1012.4 - 0.0 - Partly cloudy 10 - - - -
29/03:00pm 20.2 WSW 18 24 1011.9 - 0.0 - Partly cloudy 10 - - - -
29/02:30pm 20.4 WSW 19 26 1011.5 - 0.0 - Partly cloudy 10 - - - -
29/02:00pm 21.0 WSW 17 27 1011.2 - 0.0 - Cloudy 10 - - - -
29/01:37pm 20.7 WSW 19 29 1011.1 - 0.0 - Partly cloudy 10 - - - -
29/01:30pm 20.7 WSW 18 24 1011.2 - 0.0 - Partly cloudy 10 - - - -
29/01:00pm 21.1 WSW 18 27 1011.0 - 0.0 - Partly cloudy 10 - - - -
29/12:30pm 21.0 WSW 20 30 1010.8 - 0.0 - Partly cloudy 10 - - - -
29/12:14pm 21.1 WSW 20 30 1010.7 - 0.0 - Partly cloudy 10 - - - -
29/12:00pm 20.9 WSW 22 29 1010.7 - 0.0 - Partly cloudy 10 - - - -
29/11:30am 21.0 WSW 23 33 1010.8 - 0.0 - Partly cloudy 10 - - - -
29/11:00am 21.3 W 20 31 1010.7 - 0.0 - Partly cloudy 10 - - - -
29/10:46am 21.2 WSW 20 31 1011.0 - 0.0 - Partly cloudy 10 - - - -
29/10:30am 21.3 WSW 21 28 1011.1 - 0.0 - - 10 - - - -
29/10:01am 21.2 WSW 19 29 1011.3 - 0.0 - - 10 - - - -
29/10:00am 21.2 WSW 20 29 1011.2 - 0.0 - - 10 - - - -
29/09:30am 20.9 WSW 20 30 1011.3 - 0.0 - Partly cloudy 10 - - - -
29/09:17am 20.5 WSW 20 30 1011.4 - 0.0 - Partly cloudy 10 - - - -
29/09:00am 21.0 WSW 21 30 1011.4 - 0.0 - Partly cloudy 10 - - - -
29/08:36am 21.8 W 19 29 1011.2 - 0.0 - Partly cloudy 10 - - - -
29/08:30am 21.7 W 20 29 1011.1 - 0.0 - Partly cloudy 10 - - - -
29/08:16am 21.7 W 20 31 1011.1 - 0.0 - - 10 - - - -
29/08:00am 21.6 W 22 30 1010.8 - 0.4 - Mostly clear 10 - - - -
29/07:37am 21.4 W 17 27 1010.8 - 0.4 - - 10 - - - -
29/07:30am 21.3 W 16 24 1010.7 - 0.4 - - 10 - - - -
29/07:17am 21.2 W 19 29 1010.6 - 0.4 - Partly cloudy 10 - - - -
29/07:00am 20.9 WSW 19 28 1010.6 - 0.4 - Partly cloudy 10 - - - -
29/06:36am 20.8 W 19 29 1010.3 - 0.4 - Partly cloudy 10 - - - -
29/06:30am 21.0 W 18 27 1010.1 - 0.4 - Partly cloudy 10 - - - -
29/06:18am 20.8 W 19 29 1010.0 - 0.4 - Partly cloudy 10 - - - -
29/06:00am 20.6 W 19 27 1009.9 - 0.4 - - 10 - - - -
29/05:43am 20.5 W 19 30 1009.5 - 0.4 - Partly cloudy 10 - - - -
29/05:30am 20.5 W 17 22 1009.5 - 0.4 - Partly cloudy 10 - - - -
29/05:00am 20.6 W 16 22 1009.0 - 0.4 - Partly cloudy 8 - - - -
29/04:58am 20.6 W 17 25 1009.2 - 0.4 - Partly cloudy 8 - - - -
29/04:30am 20.8 W 17 25 1008.7 - 0.4 - Partly cloudy 10 - - - -
29/04:16am 20.7 WNW 15 27 1008.4 - 0.4 - Partly cloudy 9 - - - -
29/04:00am 20.7 WNW 13 20 1008.4 - 0.4 - Cloudy 8 - - - -
29/03:30am 20.4 WNW 10 22 1008.5 - 0.4 - Partly cloudy 8 - - - -
29/03:00am 20.0 WNW 9 16 1008.3 - 0.4 - Partly cloudy 9 - - - -
29/02:30am 19.9 WNW 10 18 1008.6 - 0.4 - Partly cloudy 9 - - - -
29/02:00am 20.1 NW 10 17 1008.5 - 0.4 - Cloudy 10 - - - -
29/01:38am 20.0 NW 10 19 1008.7 - 0.4 - Partly cloudy 10 - - - -
29/01:30am 20.0 NW 8 14 1008.8 - 0.4 - Partly cloudy 10 - - - -
29/01:00am 20.0 NW 7 15 1008.9 - 0.4 - - 10 - - - -
29/12:44am 20.0 NW 7 13 1009.1 - 0.4 - Partly cloudy 10 - - - -
29/12:30am 20.4 NNW 8 13 1009.1 - 0.4 - Partly cloudy 10 - - - -
29/12:00am 20.7 NW 9 17 1009.3 - 0.4 - Partly cloudy 8 - - - -
 
Date/Time
EST
Temp

°C
Wind Pressure Rain
since 9am
mm
Weather Cloud Vis
km
Sea
Height
m
Swell
Dir
 
Speed
knots
Gust
knots
hPa Trend Height
m
Period
s
Dir
28/11:30pm 20.3 WNW 6 10 1010.0 - 0.4 - Partly cloudy 10 - - - -
28/11:29pm 20.3 WNW 6 10 1010.1 - 0.4 - Partly cloudy 10 - - - -
28/11:00pm 19.9 WNW 6 10 1010.3 - 0.4 - Partly cloudy 10 - - - -
28/10:30pm 19.7 WNW 7 11 1010.5 - 0.4 - Partly cloudy 10 - - - -
28/10:00pm 19.9 WNW 7 9 1010.8 - 0.4 - Partly cloudy 10 - - - -
28/09:30pm 19.9 WNW 8 13 1011.1 - 0.4 - Partly cloudy 10 - - - -
28/09:00pm 20.2 WNW 8 12 1011.2 - 0.4 - Cloudy 8 - - - -
28/08:30pm 20.5 WNW 7 11 1011.4 - 0.0 - Cloudy 9 - - - -
28/08:00pm 20.3 WNW 7 12 1011.3 - 0.0 - Partly cloudy 9 - - - -
28/07:30pm 20.1 WNW 7 11 1011.6 - 0.0 - - 10 - - - -
28/07:00pm 20.1 WNW 8 11 1011.6 - 0.0 - - 10 - - - -
28/06:30pm 20.2 W 9 12 1011.7 - 0.0 - - 10 - - - -
28/06:00pm 20.1 W 8 11 1011.5 - 0.0 - - 10 - - - -
28/05:30pm 20.3 W 10 15 1011.4 - 0.0 - - 10 - - - -
28/05:00pm 20.2 W 9 13 1011.0 - 0.0 - - 10 - - - -
28/04:30pm 20.3 W 10 15 1010.9 - 0.0 - - 10 - - - -
28/04:00pm 20.5 W 10 16 1010.6 - 0.0 - - 10 - - - -
28/03:30pm 21.0 W 13 17 1010.3 - 0.0 - - 10 - - - -
28/03:00pm 21.5 W 13 21 1010.3 - 0.0 - - 10 - - - -
28/02:30pm 21.9 W 15 21 1009.9 - 0.0 - - 10 - - - -
28/02:00pm 22.0 W 14 20 1009.5 - 0.0 - - 10 - - - -
28/01:30pm 21.9 W 15 23 1009.5 - 0.0 - Partly cloudy 10 - - - -
28/01:00pm 21.7 W 16 22 1009.5 - 0.0 - Partly cloudy 10 - - - -
28/12:30pm 21.4 W 15 20 1009.5 - 0.0 - Partly cloudy 10 - - - -
28/12:00pm 21.9 W 14 19 1009.6 - 0.0 - Partly cloudy 10 - - - -
28/11:30am 21.6 W 13 17 1009.7 - 0.0 - Partly cloudy 10 - - - -
28/11:00am 21.4 W 15 22 1009.5 - 0.0 - Mostly clear 10 - - - -
28/10:30am 21.6 W 15 21 1010.1 - 0.0 - - 9 - - - -
28/10:00am 21.6 W 13 19 1010.3 - 0.0 - Partly cloudy 9 - - - -
28/09:30am 21.5 W 15 21 1010.7 - 0.0 - Partly cloudy 9 - - - -
28/09:00am 21.5 W 15 20 1010.7 - 0.0 - Cloudy 10 - - - -
28/08:30am 21.4 WNW 14 20 1010.5 - 0.0 - Partly cloudy 10 - - - -
28/08:00am 21.2 WNW 13 17 1010.3 - 12.2 - Mostly cloudy 10 - - - -
28/07:30am 21.1 WNW 12 18 1010.2 - 12.2 - Cloudy 10 - - - -
28/07:00am 20.5 WNW 13 20 1010.0 - 12.2 - Partly cloudy 10 - - - -
28/06:30am 20.1 W 15 22 1009.7 - 12.2 - Partly cloudy 10 - - - -
28/06:09am 19.4 WNW 15 22 1009.5 - 12.2 - Cloudy 10 - - - -
28/06:00am 18.8 WNW 16 24 1009.3 - 12.2 - Partly cloudy 7 - - - -
28/05:53am 18.9 W 15 22 1009.6 - 12.2 - Partly cloudy 6 - - - -
28/05:30am 18.9 WNW 14 22 1009.5 - 12.2 - Partly cloudy 10 - - - -
28/05:26am 18.8 WNW 13 19 1009.4 - 12.2 - Partly cloudy 9 - - - -
28/05:00am 18.3 WNW 11 16 1008.6 - 12.0 - Cloudy 4 - - - -
28/04:53am 18.2 WNW 12 20 1008.9 - 12.0 - Partly cloudy 5 - - - -
28/04:52am 18.2 WNW 12 20 1008.9 - 12.0 - Partly cloudy 5 - - - -
28/04:30am 17.7 W 16 21 1008.7 - 11.8 - Partly cloudy 2 - - - -
28/04:00am 18.3 W 24 34 1008.6 - 4.0 - Partly cloudy 2 - - - -
28/03:58am 18.6 W 24 34 1008.7 - 3.6 - Partly cloudy 3 - - - -
28/03:57am 19.2 W 25 32 1008.7 - 2.4 - Partly cloudy 4 - - - -
28/03:56am 20.4 NW 18 29 1008.5 - 1.6 - Partly cloudy 5 - - - -
28/03:30am 21.6 NW 15 30 1007.5 - 0.0 - Partly cloudy 10 - - - -
28/03:13am 21.6 NW 17 31 1007.4 - 0.0 - Partly cloudy 10 - - - -
28/03:00am 21.8 NW 17 31 1007.7 - 0.0 - Partly cloudy 10 - - - -
28/02:30am 21.6 NW 16 30 1007.7 - 0.0 - Partly cloudy 10 - - - -
28/02:15am 21.4 NW 16 33 1007.5 - 0.0 - Partly cloudy 10 - - - -
28/02:00am 21.4 NNW 17 33 1007.2 - 0.0 - Cloudy 10 - - - -
28/01:30am 21.5 NW 17 30 1007.4 - 0.0 - Partly cloudy 10 - - - -
28/01:14am 21.4 NNW 14 28 1007.4 - 0.0 - Partly cloudy 10 - - - -
28/01:00am 21.4 NNW 15 26 1007.8 - 0.0 - Partly cloudy 10 - - - -
28/12:30am 21.5 NNW 16 29 1008.0 - 0.0 - Partly cloudy 10 - - - -
28/12:00am 21.6 NW 15 27 1008.3 - 0.0 - Partly cloudy 10 - - - -
 
Date/Time
EST
Temp

°C
Wind Pressure Rain
since 9am
mm
Weather Cloud Vis
km
Sea
Height
m
Swell
Dir
 
Speed
knots
Gust
knots
hPa Trend Height
m
Period
s
Dir
27/11:30pm 21.4 NNW 16 32 1008.4 - 0.0 - Partly cloudy 10 - - - -
27/11:00pm 21.3 NNW 16 31 1008.3 - 0.0 - Cloudy 10 - - - -
27/10:30pm 21.2 NNW 15 27 1008.9 - 0.0 - Partly cloudy 10 - - - -
27/10:00pm 21.1 NNW 15 28 1009.0 - 0.0 - Partly cloudy 10 - - - -
27/09:30pm 21.1 NNW 15 26 1009.4 - 0.0 - Partly cloudy 10 - - - -
27/09:00pm 20.8 NNW 16 35 1009.2 - 0.0 - Partly cloudy 10 - - - -
27/08:46pm 20.9 NNW 15 28 1009.4 - 0.0 - Partly cloudy 10 - - - -
27/08:30pm 20.8 NNW 13 21 1009.5 - 0.0 - Partly cloudy 10 - - - -
27/08:00pm 20.9 NNW 13 22 1009.5 - 0.0 - Mostly cloudy 10 - - - -
27/07:30pm 20.7 NNW 14 26 1009.8 - 0.0 - Partly cloudy 10 - - - -
27/07:00pm 20.8 NNW 13 25 1010.0 - 0.0 - Partly cloudy 10 - - - -
27/06:30pm 20.6 NNW 14 22 1009.7 - 0.0 - - 10 - - - -
27/06:00pm 20.6 NNW 15 26 1009.6 - 0.0 - Partly cloudy 10 - - - -
27/05:30pm 20.3 NNW 12 22 1009.8 - 0.0 - - 10 - - - -
27/05:00pm 20.3 NNW 11 24 1009.5 - 0.0 - - 10 - - - -
27/04:30pm 20.3 NW 12 24 1010.0 - 0.0 - - 10 - - - -
27/04:00pm 20.3 NW 10 16 1010.4 - 0.0 - Partly cloudy 10 - - - -
27/03:30pm 20.5 NW 11 20 1010.4 - 0.0 - Partly cloudy 10 - - - -
27/03:00pm 20.5 NW 12 22 1010.5 - 0.0 - Mostly clear 10 - - - -
27/02:30pm 20.6 NW 13 23 1010.4 - 0.0 - Mostly clear 10 - - - -
27/02:00pm 21.2 NW 13 25 1010.3 - 0.0 - Mostly clear 10 - - - -
27/01:30pm 20.8 NW 12 19 1010.7 - 0.0 - Partly cloudy 10 - - - -
27/01:00pm 21.0 NW 13 21 1010.9 - 0.0 - Mostly clear 10 - - - -
27/12:30pm 21.3 NW 14 21 1011.1 - 0.0 - - 10 - - - -
27/12:00pm 21.4 NW 15 26 1011.4 - 0.0 - Mostly clear 10 - - - -
27/11:30am 21.5 NW 12 21 1011.8 - 0.0 - Mostly clear 10 - - - -
27/11:00am 21.3 NW 13 24 1012.3 - 0.0 - Mostly clear 10 - - - -
27/10:30am 21.2 NW 16 26 1012.9 - 0.0 - Mostly clear 10 - - - -
27/10:26am 21.2 NW 15 26 1013.0 - 0.0 - Mostly clear 10 - - - -
27/10:00am 21.1 NW 11 19 1013.2 - 0.0 - Mostly clear 10 - - - -
27/09:30am 21.2 NW 10 19 1013.6 - 0.0 - Mostly clear 10 - - - -
27/09:00am 20.9 WNW 10 18 1014.4 - 0.0 - Mostly clear 10 - - - -
27/08:30am 20.4 NW 10 15 1014.6 - 0.0 - Mostly clear 10 - - - -
27/08:00am 20.2 NW 9 15 1014.2 - 0.0 - Mostly clear 10 - - - -
27/07:30am 20.0 NNW 7 13 1014.6 - 0.0 - Mostly clear 10 - - - -
27/07:00am 19.5 NNW 7 11 1014.4 - 0.0 - Mostly clear 10 - - - -
27/06:30am 19.1 NW 6 11 1014.7 - 0.0 - - 10 - - - -
27/06:00am 18.3 NNW 5 9 1014.4 - 0.0 - - 10 - - - -
27/05:30am 18.0 N 5 8 1013.8 - 0.0 - Partly cloudy 10 - - - -
27/05:00am 17.8 N 5 9 1013.4 - 0.0 - Mostly clear 10 - - - -
27/04:30am 18.0 N 5 8 1013.3 - 0.0 - Partly cloudy 10 - - - -
27/04:00am 18.0 N 5 11 1013.2 - 0.0 - Partly cloudy 10 - - - -
27/03:30am 17.8 N 4 6 1013.4 - 0.0 - - 10 - - - -
27/03:00am 17.6 NNW 5 7 1013.8 - 0.0 - - 10 - - - -
27/02:30am 18.1 NW 6 10 1014.3 - 0.0 - Partly cloudy 10 - - - -
27/02:00am 18.3 NW 5 10 1014.2 - 0.0 - Cloudy 10 - - - -
27/01:30am 17.6 NNW 4 7 1014.6 - 0.0 - Partly cloudy 10 - - - -
27/01:00am 17.7 NNW 3 5 1015.0 - 0.0 - Partly cloudy 10 - - - -
27/12:30am 17.4 NNW 2 6 1015.0 - 0.0 - Partly cloudy 10 - - - -
27/12:00am 16.5 NNW 1 5 1014.9 - 0.0 - - 10 - - - -

Other Formats:

Comma delimited format used in spreadsheet applications
http://www.bom.gov.au/fwo/IDN60701/IDN60701.94996.axf

JavaScript Object Notation format (JSON) in row-major order
http://www.bom.gov.au/fwo/IDN60701/IDN60701.94996.json